Paynesville, West Virginia
Current Conditions -  °F | °C
As of 8:55 PM on Wednesday 26 Nov 2014 (Local Time) from KJFZ Reporting Station
Broken Clouds Broken Clouds  
Wind Chill: 38°   Ceiling: 2300
Heat Index: 38°   Visibility: 7mi
Dew Point: 36°   Wind: 0mph
Humidity: 95%   Direction: NA
Pressure: 29.97"   Gusts: NA
Location:  37.33°N, 81.89°W
Report Text: KJFZ 270155Z AUTO 00000KT 7SM SCT001 BKN023 03/02 A2997 RMK AO2 T00310023
Loading
Personal Weather Stations






























Interactive Weather Map New forecast layout! Learn more

10-Day Weather Forecast

Advertisements
Track Severe Weather on mobile